Time;durP1;ratioP1;P1;durP2;ratioP2;P2;SDS_P1;SDS_P2;PMS_P1;PMS_P2;Temp;Humidity;BMP_temperature;BMP_pressure;BME280_temperature;BME280_humidity;BME280_pressure;Samples;Min_cycle;Max_cycle;Signal;HPM_P1;HPM_P2
2022/07/10 00:02:05;;;;;;;9.13;8.30;;;;;;;16.89;74.46;94816.56;5118638;28;20206;-69
2022/07/10 00:04:32;;;;;;;9.23;8.43;;;;;;;16.91;74.52;94827.31;5118200;28;20657;-69
2022/07/10 00:07:01;;;;;;;9.15;8.40;;;;;;;16.96;73.86;94821.34;5117092;28;20646;-69
2022/07/10 00:09:28;;;;;;;9.30;8.60;;;;;;;17.00;72.89;94816.56;5118784;28;20202;-69
2022/07/10 00:11:55;;;;;;;9.93;9.13;;;;;;;17.01;73.08;94818.13;5118528;28;20199;-69
2022/07/10 00:14:22;;;;;;;9.75;9.05;;;;;;;17.02;73.46;94814.16;5117430;28;20608;-69
2022/07/10 00:16:49;;;;;;;9.75;9.05;;;;;;;17.02;73.08;94811.38;5117245;28;20208;-69
2022/07/10 00:19:18;;;;;;;9.05;8.35;;;;;;;17.03;73.00;94812.94;5118221;28;20191;-69
2022/07/10 00:21:44;;;;;;;9.65;8.77;;;;;;;17.05;72.95;94807.78;5118245;27;20190;-69
2022/07/10 00:24:11;;;;;;;9.80;9.00;;;;;;;17.06;72.30;94812.94;5118133;28;20184;-69
2022/07/10 00:26:38;;;;;;;9.43;8.63;;;;;;;17.05;72.35;94813.34;5117737;28;20203;-69
2022/07/10 00:29:05;;;;;;;9.05;8.25;;;;;;;17.02;72.24;94814.94;5117990;28;20180;-69
2022/07/10 00:31:31;;;;;;;9.90;9.10;;;;;;;17.01;72.48;94807.78;5116813;28;20226;-69
2022/07/10 00:33:58;;;;;;;9.80;9.00;;;;;;;16.99;72.43;94807.41;5117026;28;20211;-69
2022/07/10 00:36:26;;;;;;;10.25;9.25;;;;;;;17.00;72.41;94806.22;5117003;28;20207;-69
2022/07/10 00:38:53;;;;;;;8.90;8.20;;;;;;;17.00;72.06;94800.63;5117797;28;20212;-69
2022/07/10 00:41:20;;;;;;;9.15;8.45;;;;;;;16.99;73.12;94803.81;5117788;28;20191;-69
2022/07/10 00:43:53;;;;;;;9.45;8.55;;;;;;;16.98;72.59;94805.00;5116688;28;20199;-69
2022/07/10 00:46:21;;;;;;;8.63;8.02;;;;;;;16.96;72.59;94788.72;5116428;28;20587;-69
2022/07/10 00:48:48;;;;;;;9.45;8.65;;;;;;;16.96;72.68;94799.84;5117328;28;20252;-69
2022/07/10 00:51:15;;;;;;;8.45;7.75;;;;;;;16.95;72.65;94801.03;5116658;28;20223;-69
2022/07/10 00:53:43;;;;;;;8.60;7.97;;;;;;;16.94;72.66;94790.28;5116686;28;20207;-69
2022/07/10 00:56:11;;;;;;;9.63;8.73;;;;;;;16.95;72.88;94795.44;5117514;28;20191;-69
2022/07/10 00:58:39;;;;;;;8.32;7.72;;;;;;;16.94;72.57;94791.09;5116487;28;20298;-69
2022/07/10 01:01:06;;;;;;;8.80;8.18;;;;;;;16.95;72.25;94792.66;5116461;28;20184;-69
2022/07/10 01:03:33;;;;;;;8.77;8.07;;;;;;;16.96;72.41;94799.84;5116259;28;20200;-69
2022/07/10 01:05:59;;;;;;;8.80;8.10;;;;;;;16.96;72.03;94797.06;5117569;28;20188;-69
2022/07/10 01:08:26;;;;;;;9.48;8.57;;;;;;;16.96;71.87;94796.28;5116183;28;20188;-69
2022/07/10 01:10:54;;;;;;;9.27;8.48;;;;;;;16.94;72.13;94793.09;5116139;28;20216;-69
2022/07/10 01:13:22;;;;;;;9.02;8.23;;;;;;;16.94;72.17;94791.09;5116248;28;20184;-69
2022/07/10 01:15:49;;;;;;;8.30;7.78;;;;;;;16.93;72.36;94785.94;5117263;28;20206;-69
2022/07/10 01:18:16;;;;;;;9.20;8.48;;;;;;;16.93;72.40;94794.28;5116308;28;20192;-69
2022/07/10 01:20:44;;;;;;;9.20;8.40;;;;;;;16.91;72.41;94786.31;5116959;28;20188;-69
2022/07/10 01:23:12;;;;;;;9.48;8.77;;;;;;;16.89;72.20;94782.34;5116064;28;20199;-69
2022/07/10 01:25:39;;;;;;;9.55;8.77;;;;;;;16.90;72.37;94781.94;5116158;28;20291;-69
2022/07/10 01:28:06;;;;;;;8.88;8.18;;;;;;;16.91;71.95;94782.72;5116162;28;20202;-69
2022/07/10 01:30:33;;;;;;;8.18;7.50;;;;;;;16.92;72.21;94782.34;5116746;28;20215;-69
2022/07/10 01:33:00;;;;;;;9.05;8.35;;;;;;;16.94;71.70;94779.16;5116492;28;20195;-69
2022/07/10 01:35:27;;;;;;;8.82;8.13;;;;;;;16.93;71.81;94777.56;5116749;28;20184;-69
2022/07/10 01:37:54;;;;;;;8.05;7.55;;;;;;;16.95;71.71;94775.16;5115901;28;20195;-69
2022/07/10 01:40:22;;;;;;;8.57;7.85;;;;;;;16.94;71.79;94765.22;5116630;28;20180;-69
2022/07/10 01:42:48;;;;;;;9.18;8.00;;;;;;;16.92;71.72;94762.03;5115346;28;20199;-69
2022/07/10 01:45:18;;;;;;;8.75;8.10;;;;;;;16.92;71.51;94762.03;5115621;28;20202;-69
2022/07/10 01:47:45;;;;;;;8.65;8.02;;;;;;;16.92;71.57;94762.03;5116054;28;20187;-69
2022/07/10 01:50:12;;;;;;;8.38;7.78;;;;;;;16.89;71.54;94763.66;5115563;28;20196;-69
2022/07/10 01:52:39;;;;;;;8.57;7.93;;;;;;;16.88;72.24;94766.81;5115307;28;20231;-69
2022/07/10 01:55:07;;;;;;;8.27;7.68;;;;;;;16.87;71.56;94765.25;5115206;28;20258;-69
2022/07/10 01:57:35;;;;;;;8.68;7.88;;;;;;;16.83;71.78;94766.03;5115103;28;20191;-69
2022/07/10 02:00:02;;;;;;;8.07;7.50;;;;;;;16.83;71.76;94762.47;5115177;28;20187;-69
2022/07/10 02:02:29;;;;;;;8.55;7.85;;;;;;;16.83;71.72;94765.25;5115407;28;20196;-69
2022/07/10 02:04:54;;;;;;;8.57;7.88;;;;;;;16.82;71.68;94756.09;5114930;28;20196;-69
2022/07/10 02:07:22;;;;;;;7.95;7.35;;;;;;;16.80;72.03;94757.69;5115204;28;20207;-69
2022/07/10 02:09:49;;;;;;;8.98;7.95;;;;;;;16.80;71.30;94760.47;5115361;28;20214;-69
2022/07/10 02:12:16;;;;;;;7.95;7.35;;;;;;;16.80;71.49;94746.53;5114904;28;20223;-69
2022/07/10 02:14:44;;;;;;;8.13;7.53;;;;;;;16.79;71.83;94754.09;5115183;28;20244;-69
2022/07/10 02:17:11;;;;;;;8.32;7.72;;;;;;;16.75;71.40;94753.31;5115051;28;20199;-69
2022/07/10 02:19:38;;;;;;;8.30;7.55;;;;;;;16.74;71.95;94746.16;5114944;28;20196;-69
2022/07/10 02:22:05;;;;;;;8.80;8.18;;;;;;;16.71;71.70;94749.72;5115080;28;20543;-69
2022/07/10 02:24:32;;;;;;;9.10;8.20;;;;;;;16.69;71.80;94746.53;5114960;28;20207;-69
2022/07/10 02:26:58;;;;;;;8.10;7.40;;;;;;;16.65;71.90;94748.53;5114595;28;20244;-69
2022/07/10 02:29:25;;;;;;;8.75;8.00;;;;;;;16.67;72.16;94760.06;5115155;28;20192;-69
2022/07/10 02:31:53;;;;;;;8.63;7.80;;;;;;;16.67;71.70;94750.94;5115336;28;20219;-69
2022/07/10 02:34:20;;;;;;;7.97;7.28;;;;;;;16.67;71.76;94751.72;5114426;28;20191;-69
2022/07/10 02:36:47;;;;;;;8.25;7.65;;;;;;;16.70;71.59;94750.09;5114933;28;20206;-69
2022/07/10 02:39:14;;;;;;;8.15;7.45;;;;;;;16.70;71.26;94748.09;5114988;28;20196;-69
2022/07/10 02:41:40;;;;;;;8.48;7.63;;;;;;;16.70;71.38;94747.31;5114958;28;20212;-69
2022/07/10 02:44:07;;;;;;;8.88;8.10;;;;;;;16.69;71.59;94749.31;5114646;28;20195;-69
2022/07/10 02:46:34;;;;;;;7.65;7.05;;;;;;;16.67;71.38;94751.72;5114373;28;20620;-69
2022/07/10 02:49:04;;;;;;;8.05;7.35;;;;;;;16.69;71.37;94757.66;5114303;28;20279;-69
2022/07/10 02:51:30;;;;;;;7.80;7.22;;;;;;;16.69;71.73;94754.09;5114676;28;20227;-69
2022/07/10 02:53:58;;;;;;;7.70;7.10;;;;;;;16.69;71.25;94754.09;5115624;28;20505;-69
2022/07/10 02:56:25;;;;;;;7.75;6.97;;;;;;;16.68;71.40;94752.50;5115289;28;20192;-69
2022/07/10 02:58:51;;;;;;;7.57;7.07;;;;;;;16.68;71.12;94763.66;5115469;28;20184;-69
2022/07/10 03:01:18;;;;;;;7.90;7.20;;;;;;;16.69;71.10;94762.44;5115429;28;20203;-69
2022/07/10 03:03:45;;;;;;;8.52;7.85;;;;;;;16.68;71.15;94772.78;5114608;28;20196;-69
2022/07/10 03:06:13;;;;;;;7.95;7.35;;;;;;;16.67;71.39;94774.00;5114248;28;20627;-69
2022/07/10 03:08:40;;;;;;;8.40;7.68;;;;;;;16.67;71.23;94773.19;5117252;28;20195;-69
2022/07/10 03:11:07;;;;;;;10.40;9.50;;;;;;;16.66;71.34;94777.94;5118289;28;20207;-70
2022/07/10 03:13:33;;;;;;;8.60;8.00;;;;;;;16.67;71.05;94776.78;5118690;28;20199;-69
2022/07/10 03:16:00;;;;;;;8.27;7.68;;;;;;;16.64;71.22;94777.56;5118523;28;20199;-69
2022/07/10 03:18:27;;;;;;;8.43;7.65;;;;;;;16.63;71.58;94777.94;5119510;27;20184;-69
2022/07/10 03:20:53;;;;;;;8.55;7.78;;;;;;;16.61;71.48;94775.59;5118398;28;20195;-69
2022/07/10 03:23:22;;;;;;;8.02;7.40;;;;;;;16.61;71.65;94772.78;5118627;28;20187;-69
2022/07/10 03:25:49;;;;;;;9.15;8.15;;;;;;;16.60;71.78;94776.78;5119280;28;20196;-70
2022/07/10 03:28:15;;;;;;;8.07;7.47;;;;;;;16.61;71.66;94786.72;5119243;28;20190;-69
2022/07/10 03:30:42;;;;;;;8.63;7.93;;;;;;;16.59;71.42;94787.13;5119279;28;20194;-69
2022/07/10 03:33:09;;;;;;;8.43;7.65;;;;;;;16.58;71.87;94787.50;5118775;28;20571;-69
2022/07/10 03:35:36;;;;;;;7.90;7.18;;;;;;;16.58;72.19;94787.50;5119088;28;20184;-69
2022/07/10 03:38:03;;;;;;;8.02;7.43;;;;;;;16.59;71.70;94784.34;5118931;28;20187;-69
2022/07/10 03:40:32;;;;;;;7.90;7.20;;;;;;;16.61;71.89;94783.94;5119117;28;20188;-69
2022/07/10 03:42:58;;;;;;;8.18;7.57;;;;;;;16.63;71.96;94780.75;5117941;28;20196;-69
2022/07/10 03:45:26;;;;;;;8.75;8.02;;;;;;;16.63;72.33;94784.34;5118912;28;20592;-69
2022/07/10 03:47:53;;;;;;;8.50;7.80;;;;;;;16.60;72.38;94774.78;5118810;28;20184;-69
2022/07/10 03:50:20;;;;;;;8.60;7.95;;;;;;;16.60;71.56;94771.22;5118850;28;20205;-69
2022/07/10 03:52:47;;;;;;;8.18;7.57;;;;;;;16.61;72.04;94770.00;5118707;28;20246;-69
2022/07/10 03:55:14;;;;;;;8.07;7.47;;;;;;;16.62;72.14;94768.81;5118401;28;20508;-69
2022/07/10 03:57:53;;;;;;;8.07;7.38;;;;;;;16.61;72.12;94764.44;5118686;28;20192;-69
2022/07/10 04:00:21;;;;;;;9.63;8.70;;;;;;;16.60;72.18;94765.66;5118773;28;20184;-69
2022/07/10 04:02:48;;;;;;;8.60;7.90;;;;;;;16.60;71.82;94768.44;5118529;28;20180;-69
2022/07/10 04:05:15;;;;;;;8.18;7.57;;;;;;;16.60;71.80;94776.78;5118533;28;20198;-69
2022/07/10 04:07:42;;;;;;;8.20;7.50;;;;;;;16.60;72.10;94769.22;5118064;28;20199;-69
2022/07/10 04:10:10;;;;;;;8.85;8.15;;;;;;;16.60;71.95;94760.88;5117620;28;20203;-69
2022/07/10 04:12:37;;;;;;;8.40;7.60;;;;;;;16.63;71.89;94769.59;5118025;28;20654;-69
2022/07/10 04:15:06;;;;;;;9.00;8.30;;;;;;;16.65;71.73;94770.00;5117395;28;20200;-69
2022/07/10 04:17:33;;;;;;;8.45;7.75;;;;;;;16.65;71.61;94762.44;5118183;28;20195;-69
2022/07/10 04:20:00;;;;;;;8.30;7.70;;;;;;;16.68;71.31;94756.09;5118072;28;20192;-69
2022/07/10 04:22:27;;;;;;;8.25;7.63;;;;;;;16.66;71.58;94749.31;5116988;28;20253;-69
2022/07/10 04:24:54;;;;;;;8.23;7.53;;;;;;;16.67;71.89;94756.50;5117105;28;20214;-70
2022/07/10 04:27:22;;;;;;;7.90;7.30;;;;;;;16.69;71.45;94754.09;5118100;28;20199;-69
2022/07/10 04:29:49;;;;;;;7.75;7.15;;;;;;;16.72;71.46;94753.28;5118079;28;20176;-70
2022/07/10 04:32:18;;;;;;;7.60;7.00;;;;;;;16.72;71.41;94742.94;5100361;28;20666;-69
2022/07/10 04:34:44;;;;;;;7.80;7.20;;;;;;;16.74;71.11;94748.97;5117003;28;20203;-69
2022/07/10 04:37:11;;;;;;;7.68;6.97;;;;;;;16.75;71.11;94749.75;5116942;28;20203;-69
2022/07/10 04:39:39;;;;;;;7.72;7.15;;;;;;;16.78;71.00;94754.53;5117211;28;20204;-69
2022/07/10 04:42:06;;;;;;;7.35;6.80;;;;;;;16.78;70.83;94758.09;5116988;28;20219;-69
2022/07/10 04:44:33;;;;;;;8.00;7.40;;;;;;;16.79;71.08;94759.69;5117143;28;20520;-69
2022/07/10 04:47:00;;;;;;;8.00;7.20;;;;;;;16.80;70.80;94757.69;5116758;28;20199;-69
2022/07/10 04:49:28;;;;;;;7.53;6.93;;;;;;;16.77;70.88;94762.06;5117782;28;20184;-69
2022/07/10 04:51:56;;;;;;;8.27;7.57;;;;;;;16.79;71.30;94758.88;5116928;28;20320;-69
2022/07/10 04:54:22;;;;;;;8.80;7.90;;;;;;;16.80;71.40;94766.81;5116505;28;20205;-69
2022/07/10 04:56:49;;;;;;;7.50;6.93;;;;;;;16.82;71.25;94760.88;5116584;28;20188;-69
2022/07/10 04:59:16;;;;;;;7.78;7.18;;;;;;;16.82;71.01;94763.66;5117497;28;20179;-69
2022/07/10 05:01:43;;;;;;;8.00;7.40;;;;;;;16.83;70.74;94768.03;5117473;28;20214;-69
2022/07/10 05:04:10;;;;;;;7.95;7.35;;;;;;;16.84;70.77;94764.03;5117166;28;20192;-69
2022/07/10 05:06:38;;;;;;;8.13;7.43;;;;;;;16.86;70.70;94760.88;5116447;28;20273;-69
2022/07/10 05:09:05;;;;;;;7.97;7.28;;;;;;;16.89;71.08;94763.66;5116338;28;20202;-69
2022/07/10 05:11:32;;;;;;;7.75;7.15;;;;;;;16.90;70.98;94759.66;5117301;28;20547;-69
2022/07/10 05:13:59;;;;;;;8.13;7.43;;;;;;;16.93;70.93;94756.06;5116631;28;20203;-69
2022/07/10 05:16:26;;;;;;;8.00;7.32;;;;;;;16.94;70.79;94752.09;5116514;28;20191;-69
2022/07/10 05:18:53;;;;;;;7.68;6.97;;;;;;;16.96;71.32;94746.91;5116984;28;20206;-69
2022/07/10 05:21:20;;;;;;;8.63;7.88;;;;;;;16.99;71.34;94740.56;5116598;28;20205;-69
2022/07/10 05:23:48;;;;;;;7.90;7.20;;;;;;;17.03;70.98;94749.69;5116145;28;20187;-69
2022/07/10 05:26:15;;;;;;;7.75;7.05;;;;;;;17.05;70.92;94747.28;5116965;28;20184;-69
2022/07/10 05:28:41;;;;;;;8.80;7.47;;;;;;;17.08;70.97;94745.69;5116559;28;20188;-69
2022/07/10 05:31:08;;;;;;;7.93;7.22;;;;;;;17.12;70.82;94748.47;5115190;28;20199;-69
2022/07/10 05:33:38;;;;;;;7.90;6.95;;;;;;;17.16;70.86;94752.81;5116698;28;20204;-69
2022/07/10 05:36:06;;;;;;;7.65;6.88;;;;;;;17.22;71.14;94756.00;5116787;28;20274;-69
2022/07/10 05:38:32;;;;;;;7.72;7.13;;;;;;;17.27;71.02;94758.34;5115999;28;20291;-69
2022/07/10 05:41:01;;;;;;;6.88;6.32;;;;;;;17.31;70.87;94748.78;5116638;28;20195;-69
2022/07/10 05:43:27;;;;;;;8.02;7.43;;;;;;;17.36;70.74;94749.56;5116296;28;20200;-69
2022/07/10 05:45:54;;;;;;;7.38;6.78;;;;;;;17.41;71.05;94740.78;5116548;28;20192;-69
2022/07/10 05:48:21;;;;;;;7.57;7.05;;;;;;;17.44;70.19;94742.78;5116432;28;20622;-69
2022/07/10 05:50:48;;;;;;;7.13;6.63;;;;;;;17.45;69.90;94744.34;5115161;28;20192;-69
2022/07/10 05:53:15;;;;;;;7.43;6.82;;;;;;;17.47;69.98;94739.97;5115900;28;20247;-69
2022/07/10 05:55:41;;;;;;;7.60;7.05;;;;;;;17.49;70.16;94748.72;5115189;28;20207;-69
2022/07/10 05:58:12;;;;;;;7.47;6.88;;;;;;;17.52;70.31;94749.91;5115631;28;20288;-69
2022/07/10 06:00:38;;;;;;;6.88;6.35;;;;;;;17.56;69.99;94750.66;5116307;28;20195;-69
2022/07/10 06:03:05;;;;;;;7.47;6.82;;;;;;;17.58;69.47;94745.50;5116162;28;20180;-69
2022/07/10 06:05:32;;;;;;;7.35;6.85;;;;;;;17.61;69.02;94753.06;5116528;28;20196;-69
2022/07/10 06:07:59;;;;;;;7.03;6.43;;;;;;;17.61;69.15;94747.47;5116211;28;20192;-69
2022/07/10 06:10:26;;;;;;;7.65;6.95;;;;;;;17.66;70.01;94747.03;5115310;28;20195;-69
2022/07/10 06:12:52;;;;;;;8.57;6.95;;;;;;;17.71;70.02;94748.59;5115878;28;20223;-69
2022/07/10 06:15:20;;;;;;;6.90;6.40;;;;;;;17.71;68.94;94743.81;5115745;28;20198;-69
2022/07/10 06:17:47;;;;;;;7.55;6.85;;;;;;;17.74;69.37;94750.59;5116036;28;20187;-69
2022/07/10 06:20:14;;;;;;;5.97;5.55;;;;;;;17.72;68.21;94753.78;5115991;28;20191;-69
2022/07/10 06:22:41;;;;;;;6.18;5.40;;;;;;;17.72;67.55;94745.44;5115670;28;20194;-69
2022/07/10 06:25:11;;;;;;;6.55;5.95;;;;;;;17.72;67.68;94737.06;5115050;28;20187;-69
2022/07/10 06:27:38;;;;;;;6.35;5.85;;;;;;;17.74;67.52;94736.63;5115220;28;20210;-69
2022/07/10 06:30:06;;;;;;;6.10;5.55;;;;;;;17.74;67.11;94736.63;5114646;28;20215;-69
2022/07/10 06:32:34;;;;;;;6.07;5.50;;;;;;;17.76;66.85;94740.66;5114048;28;20223;-69
2022/07/10 06:35:01;;;;;;;6.18;5.78;;;;;;;17.78;67.49;94734.66;5115661;28;20207;-69
2022/07/10 06:37:28;;;;;;;5.82;5.43;;;;;;;17.78;66.88;94737.44;5115723;28;20244;-69
2022/07/10 06:39:55;;;;;;;5.68;5.25;;;;;;;17.79;67.17;94728.69;5115689;28;20215;-69
2022/07/10 06:42:22;;;;;;;6.15;5.65;;;;;;;17.78;66.57;94735.44;5115673;28;20188;-69
2022/07/10 06:44:49;;;;;;;6.20;5.60;;;;;;;17.79;66.98;94730.66;5115702;28;20194;-69
2022/07/10 06:50:03;;;;;;;6.93;6.25;;;;;;;17.84;67.18;94723.88;5114437;28;20191;-69
2022/07/10 06:52:32;;;;;;;6.10;5.60;;;;;;;17.87;67.08;94732.22;5115258;28;20305;-69
2022/07/10 06:54:59;;;;;;;5.53;5.13;;;;;;;17.91;66.57;94727.41;5114608;28;20199;-69
2022/07/10 06:57:26;;;;;;;5.60;5.20;;;;;;;17.95;67.00;94732.97;5115049;28;20230;-69
2022/07/10 06:59:53;;;;;;;5.43;5.03;;;;;;;17.97;66.67;94725.78;5114913;28;20199;-69
2022/07/10 07:02:20;;;;;;;6.03;5.43;;;;;;;17.97;66.61;94725.78;5114616;28;20198;-69
2022/07/10 07:04:46;;;;;;;5.30;4.93;;;;;;;17.99;66.52;94728.94;5115428;28;20195;-69
2022/07/10 07:07:15;;;;;;;5.22;4.82;;;;;;;18.00;65.87;94719.34;5114528;28;20203;-69
2022/07/10 07:09:43;;;;;;;5.57;5.18;;;;;;;18.02;65.98;94722.53;5114808;28;20191;-69
2022/07/10 07:12:10;;;;;;;5.32;4.93;;;;;;;18.05;66.22;94723.72;5115357;28;20179;-69
2022/07/10 07:14:37;;;;;;;5.93;5.45;;;;;;;18.07;66.03;94717.72;5114412;28;20208;-69
2022/07/10 07:17:06;;;;;;;6.00;5.50;;;;;;;18.10;65.78;94723.28;5114440;28;20200;-69
2022/07/10 07:23:09;;;;;;;5.38;4.90;;;;;;;18.17;66.64;94723.22;5114296;28;20195;-69
2022/07/10 07:25:06;;;;;;;5.22;4.75;;;;;;;18.35;65.91;94719.50;5113963;28;20192;-69
2022/07/10 07:27:35;;;;;;;6.10;5.40;;;;;;;18.38;65.66;94727.06;5114286;28;20202;-69
2022/07/10 07:30:06;;;;;;;5.82;5.20;;;;;;;18.39;65.41;94706.31;5115232;28;20244;-69
2022/07/10 07:32:33;;;;;;;5.32;4.93;;;;;;;18.39;65.57;94709.09;5114254;28;20208;-69
2022/07/10 07:34:59;;;;;;;5.20;4.63;;;;;;;18.41;65.35;94715.06;5113947;28;20287;-69
2022/07/10 07:37:37;;;;;;;5.03;4.53;;;;;;;18.41;64.58;94710.28;5114847;28;20184;-69
2022/07/10 07:40:05;;;;;;;5.35;4.90;;;;;;;18.40;64.16;94711.47;5114006;28;20223;-69
2022/07/10 07:42:32;;;;;;;5.20;4.80;;;;;;;18.44;64.77;94705.84;5114263;28;20188;-70
2022/07/10 07:45:00;;;;;;;5.32;4.93;;;;;;;18.44;64.07;94715.03;5114195;28;20301;-69
2022/07/10 07:47:26;;;;;;;5.13;4.72;;;;;;;18.46;63.72;94714.63;5114137;28;20207;-69
2022/07/10 07:49:53;;;;;;;5.15;4.75;;;;;;;18.49;64.10;94713.81;5114785;28;20180;-69
2022/07/10 07:52:20;;;;;;;5.10;4.70;;;;;;;18.53;64.65;94709.78;5113493;28;20228;-69
2022/07/10 07:54:49;;;;;;;4.63;4.25;;;;;;;18.59;64.24;94706.50;5116680;28;20199;-69
2022/07/10 07:57:16;;;;;;;4.90;4.50;;;;;;;18.62;63.85;94706.47;5118384;28;20203;-69
2022/07/10 07:59:42;;;;;;;5.07;4.25;;;;;;;18.67;63.06;94708.84;5118691;28;20180;-69
2022/07/10 08:02:09;;;;;;;4.25;3.95;;;;;;;18.71;61.90;94703.25;5118548;28;20187;-69
2022/07/10 08:04:36;;;;;;;4.57;4.18;;;;;;;18.74;62.20;94696.84;5117863;28;20195;-69
2022/07/10 08:07:03;;;;;;;5.35;4.85;;;;;;;18.76;61.59;94703.59;5118223;28;20207;-69
2022/07/10 08:09:30;;;;;;;4.82;4.50;;;;;;;18.80;60.98;94697.97;5117443;28;20188;-69
2022/07/10 08:11:58;;;;;;;6.03;4.60;;;;;;;18.85;61.44;94703.13;5117736;28;20191;-69
2022/07/10 08:14:24;;;;;;;3.85;3.55;;;;;;;18.89;59.69;94708.66;5118462;28;20227;-69
2022/07/10 08:16:51;;;;;;;4.38;3.97;;;;;;;18.92;59.15;94703.03;5118212;28;20191;-69
2022/07/10 08:19:19;;;;;;;4.35;4.00;;;;;;;18.96;59.13;94689.81;5117211;28;20184;-69
2022/07/10 08:21:46;;;;;;;4.22;3.85;;;;;;;19.01;58.69;94696.94;5118286;28;20574;-69
2022/07/10 08:24:14;;;;;;;4.78;4.38;;;;;;;19.05;59.18;94694.09;5118043;28;20180;-69
2022/07/10 08:26:41;;;;;;;4.57;4.18;;;;;;;19.12;60.84;94700.41;5117877;28;20184;-70
2022/07/10 08:29:09;;;;;;;3.75;3.55;;;;;;;19.21;59.05;94700.72;5118125;28;20180;-69
2022/07/10 08:31:36;;;;;;;4.45;4.15;;;;;;;19.29;59.37;94695.81;5118297;28;20194;-70
2022/07/10 08:34:03;;;;;;;4.50;4.10;;;;;;;19.41;61.01;94695.25;5117667;28;20670;-69
2022/07/10 08:36:30;;;;;;;4.72;4.32;;;;;;;19.57;60.82;94703.06;5118021;28;20207;-69
2022/07/10 08:38:58;;;;;;;4.78;4.38;;;;;;;19.66;60.46;94703.34;5116994;28;20191;-69
2022/07/10 08:41:26;;;;;;;4.70;4.30;;;;;;;19.73;59.39;94701.69;5117044;28;20203;-69
2022/07/10 08:43:53;;;;;;;4.68;4.28;;;;;;;19.73;59.66;94699.66;5117236;28;20287;-69
2022/07/10 08:46:22;;;;;;;5.05;4.65;;;;;;;19.76;58.85;94700.84;5117811;28;20187;-69
2022/07/10 08:48:50;;;;;;;4.53;4.13;;;;;;;19.87;59.27;94696.66;5117699;28;20183;-69
2022/07/10 08:51:26;;;;;;;4.18;3.88;;;;;;;19.95;59.67;94697.34;5117735;28;20187;-69
2022/07/10 08:53:53;;;;;;;4.13;3.90;;;;;;;20.02;57.49;94690.84;5096546;28;20214;-69
2022/07/10 08:56:20;;;;;;;4.32;4.03;;;;;;;20.05;57.65;94690.03;5097002;28;20192;-69
2022/07/10 08:58:48;;;;;;;4.85;3.72;;;;;;;20.07;56.77;94687.56;5096266;28;20207;-69
2022/07/10 09:01:14;;;;;;;4.55;4.15;;;;;;;20.05;58.18;94687.22;5096787;28;20192;-69
2022/07/10 09:03:42;;;;;;;4.90;4.50;;;;;;;20.05;59.08;94687.22;5096789;28;20203;-69
2022/07/10 09:06:10;;;;;;;5.53;3.80;;;;;;;20.07;59.16;94687.56;5094530;28;20628;-69
2022/07/10 09:08:37;;;;;;;4.20;3.90;;;;;;;20.12;56.59;94692.72;5095840;28;20204;-69
2022/07/10 09:11:17;;;;;;;4.72;4.32;;;;;;;20.14;56.02;94690.25;5095744;28;20188;-69
2022/07/10 09:13:51;;;;;;;4.60;4.20;;;;;;;20.23;57.85;94687.72;5095896;28;20227;-69
2022/07/10 09:16:22;;;;;;;5.28;4.88;;;;;;;20.34;57.42;94679.94;5096207;28;20199;-69
2022/07/10 09:18:51;;;;;;;5.28;4.70;;;;;;;20.40;58.73;94678.22;5095605;28;20270;-69
2022/07/10 09:21:18;;;;;;;6.22;4.60;;;;;;;20.45;57.82;94685.38;5096542;28;20262;-69
2022/07/10 09:23:45;;;;;;;4.40;4.00;;;;;;;20.48;55.78;94678.91;5095705;28;20651;-69
2022/07/10 09:26:11;;;;;;;4.03;3.72;;;;;;;20.53;55.39;94677.66;5095844;28;20188;-69
2022/07/10 09:28:38;;;;;;;4.45;4.15;;;;;;;20.47;56.30;94671.72;5095583;28;20192;-72
2022/07/10 09:31:05;;;;;;;4.47;4.07;;;;;;;20.48;54.65;94670.50;5095290;28;20209;-69
2022/07/10 09:33:34;;;;;;;4.18;3.88;;;;;;;20.57;56.19;94665.16;5095561;28;20269;-69
2022/07/10 09:36:08;;;;;;;5.85;4.25;;;;;;;20.76;57.17;94662.81;5095287;28;20192;-70
2022/07/10 09:38:55;;;;;;;5.07;4.28;;;;;;;20.87;59.09;94663.41;5095517;28;20260;-70
2022/07/10 09:41:26;;;;;;;4.13;3.80;;;;;;;20.85;56.26;94665.88;5095833;28;20239;-70
2022/07/10 09:43:55;;;;;;;4.50;4.10;;;;;;;20.76;54.01;94663.63;5095688;28;20542;-70
2022/07/10 09:46:23;;;;;;;3.97;3.67;;;;;;;20.69;53.73;94663.75;5095325;28;20199;-70
2022/07/10 09:49:02;;;;;;;4.05;3.70;;;;;;;20.63;53.23;94668.28;5096122;28;20184;-70
2022/07/10 09:51:33;;;;;;;4.32;3.47;;;;;;;20.74;54.22;94662.47;5095514;28;20188;-70
2022/07/10 09:54:02;;;;;;;3.75;3.45;;;;;;;20.99;55.27;94664.78;5115288;28;20215;-69
2022/07/10 09:56:33;;;;;;;4.13;3.75;;;;;;;21.17;55.64;94654.03;5115228;28;20612;-69
2022/07/10 09:59:01;;;;;;;3.60;3.40;;;;;;;21.29;55.62;94658.97;5115120;28;20207;-69
2022/07/10 10:01:30;;;;;;;4.05;3.60;;;;;;;21.25;52.64;94657.47;5115706;28;20203;-69
2022/07/10 10:04:00;;;;;;;4.32;3.92;;;;;;;21.16;52.46;94656.03;5115045;28;20235;-69
2022/07/10 10:06:29;;;;;;;3.95;3.65;;;;;;;21.13;54.16;94653.28;5115086;28;20217;-69
2022/07/10 10:09:00;;;;;;;3.40;3.10;;;;;;;21.24;55.28;94656.69;5114981;28;20203;-69
2022/07/10 10:11:28;;;;;;;3.78;3.50;;;;;;;21.25;55.40;94661.06;5116160;28;20184;-69
2022/07/10 10:13:55;;;;;;;4.20;3.80;;;;;;;21.18;53.19;94666.03;5115449;28;20211;-69
2022/07/10 10:16:23;;;;;;;3.72;3.53;;;;;;;21.07;53.58;94653.00;5115150;28;20196;-69
2022/07/10 10:21:36;;;;;;;4.82;4.32;;;;;;;20.93;54.37;94658.91;5114795;28;20226;-69
2022/07/10 10:24:06;;;;;;;5.30;4.75;;;;;;;20.91;53.30;94662.16;5115262;28;20198;-69
2022/07/10 10:26:33;;;;;;;3.97;3.60;;;;;;;21.00;54.87;94650.34;5115679;28;20184;-69
2022/07/10 10:29:02;;;;;;;3.95;3.65;;;;;;;21.11;52.71;94650.13;5114614;28;20611;-69
2022/07/10 10:31:29;;;;;;;4.30;4.00;;;;;;;21.16;52.94;94644.81;5114958;28;20261;-69
2022/07/10 10:33:56;;;;;;;4.65;4.00;;;;;;;21.21;54.45;94637.13;5115462;28;20215;-69
2022/07/10 10:36:45;;;;;;;4.43;4.03;;;;;;;21.19;53.76;94645.97;5114927;28;20225;-69
2022/07/10 10:39:18;;;;;;;4.00;3.70;;;;;;;21.14;53.16;94641.66;5115768;28;20223;-69
2022/07/10 10:41:51;;;;;;;3.90;3.53;;;;;;;21.07;52.49;94638.22;5114990;28;20546;-69
2022/07/10 10:44:35;;;;;;;3.80;3.50;;;;;;;21.05;53.21;94643.44;5115702;28;20645;-69
2022/07/10 10:47:07;;;;;;;5.00;3.78;;;;;;;21.03;53.60;94638.28;5115629;28;20184;-69
2022/07/10 10:50:04;;;;;;;3.97;3.58;;;;;;;21.02;52.75;94644.31;5114980;28;20196;-69
2022/07/10 10:52:31;;;;;;;4.60;4.20;;;;;;;21.02;53.50;94635.88;5036283;28;20236;-69
2022/07/10 10:55:12;;;;;;;3.72;3.42;;;;;;;21.00;52.15;94632.75;5101155;28;20230;-69
2022/07/10 10:57:51;;;;;;;4.25;3.50;;;;;;;21.00;53.44;94633.53;5114629;28;20600;-69
2022/07/10 11:00:37;;;;;;;4.25;3.92;;;;;;;21.11;56.75;94636.91;5115205;28;20176;-69
2022/07/10 11:03:18;;;;;;;3.40;3.20;;;;;;;21.16;53.50;94627.97;5114303;28;20245;-69
2022/07/10 11:05:46;;;;;;;4.75;3.75;;;;;;;21.23;52.92;94626.25;5115210;28;20184;-69
2022/07/10 11:08:13;;;;;;;3.47;3.17;;;;;;;21.42;54.49;94619.84;5114400;28;20196;-69
2022/07/10 11:10:43;;;;;;;4.25;3.95;;;;;;;21.69;54.96;94613.28;5115196;28;20184;-69
2022/07/10 11:13:11;;;;;;;4.88;4.20;;;;;;;22.00;56.03;94622.16;5114447;28;20207;-69
2022/07/10 11:15:38;;;;;;;3.67;3.38;;;;;;;22.07;53.57;94611.53;5114466;28;20228;-69
2022/07/10 11:18:07;;;;;;;4.80;4.40;;;;;;;22.00;51.44;94616.53;5115598;28;20191;-69
2022/07/10 11:20:35;;;;;;;3.60;3.30;;;;;;;21.91;51.23;94621.97;5114458;28;20203;-69
2022/07/10 11:23:14;;;;;;;3.75;3.40;;;;;;;21.84;50.89;94620.91;5114238;28;20245;-69
2022/07/10 11:25:50;;;;;;;3.80;3.47;;;;;;;21.83;52.30;94618.56;5115339;28;20183;-69
2022/07/10 11:28:22;;;;;;;4.18;3.88;;;;;;;21.81;52.94;94618.19;5114984;28;20192;-69
2022/07/10 11:30:51;;;;;;;3.97;3.67;;;;;;;21.75;51.51;94615.13;5118833;28;20195;-69
2022/07/10 11:33:20;;;;;;;3.85;3.55;;;;;;;21.76;51.94;94608.28;5119544;28;20199;-69
2022/07/10 11:35:48;;;;;;;4.00;3.70;;;;;;;21.76;51.23;94613.91;5118304;28;20213;-69
2022/07/10 11:38:20;;;;;;;4.20;3.90;;;;;;;21.76;51.24;94615.91;5117960;28;20199;-69
2022/07/10 11:40:48;;;;;;;4.03;3.72;;;;;;;21.74;52.71;94618.34;5118025;28;20323;-69
2022/07/10 11:43:17;;;;;;;3.67;3.38;;;;;;;21.69;50.24;94610.47;5118729;28;20544;-69
2022/07/10 11:45:44;;;;;;;3.33;3.00;;;;;;;21.65;49.83;94615.38;5119227;28;20192;-69
2022/07/10 11:48:17;;;;;;;3.72;3.42;;;;;;;21.63;49.86;94616.56;5119089;28;20258;-69